Aegean Orion — SVA2487 — position and weather

sailwx.info

Track history (hours):
 
Tides and Currents Weather Stations Pressure Air Temp Water Temp Dewpoint Dewpoint Depression Visibility Wind Speed Wind Dir Waves Ship Positions

Aegean Orion

Last reported at 2015-May-23 12:27 UTC. Time now 2015-May-24 05:00 UTC.
Position N 38°02' E 023°32'.

; draft 2.4 m.

Type: Ship. MMSI: 239550200.

Date/timePositionNaut miles runAvg speedWind from/ knotsBaromVisibWave heightAir tempDewpointWater temp
2015-May-23 12:27N 38°02' E 023°32'1 1.2
2015-May-23 11:33N 38°02' E 023°31'0 0.0
2015-May-23 10:33N 38°02' E 023°31'0 0.0
2015-May-23 09:33N 38°02' E 023°31'5 5.2
2015-May-23 08:33N 37°57' E 023°33'4 3.7
2015-May-23 07:33N 37°56' E 023°38'0 0.0
2015-May-23 06:33N 37°56' E 023°38'1 0.7
2015-May-23 05:33N 37°56' E 023°37'5 5.3
2015-May-23 04:33N 38°00' E 023°33'2 0.1
2015-May-22 11:04N 38°02' E 023°32'4 6.9
2015-May-22 10:33N 37°58' E 023°33'4 4.2
2015-May-22 09:33N 37°56' E 023°38'0 0.0
2015-May-22 08:34N 37°56' E 023°38'0 0.0
2015-May-22 07:34N 37°56' E 023°38'2 1.5
2015-May-22 06:34N 37°57' E 023°36'6 5.7
2015-May-22 05:34N 38°02' E 023°32'0 0.2
2015-May-22 04:34N 38°02' E 023°32'0 0.0
2015-May-22 03:34N 38°02' E 023°32'0 0.0
2015-May-22 02:33N 38°02' E 023°32'0 0.0
2015-May-22 01:33N 38°02' E 023°32'0 0.0
2015-May-22 00:33N 38°02' E 023°32'1 1.0
2015-May-21 23:32N 38°02' E 023°31'0 0.0
2015-May-21 22:33N 38°02' E 023°31'0 0.0
2015-May-21 21:33N 38°02' E 023°31'0 0.0
2015-May-21 20:33N 38°02' E 023°31'0 0.0
2015-May-21 19:33N 38°02' E 023°31'0 0.0
2015-May-21 18:34N 38°02' E 023°31'1 0.5
2015-May-21 17:34N 38°02' E 023°31'0 0.0
2015-May-21 16:33N 38°02' E 023°31'2 1.5
2015-May-21 15:08N 38°00' E 023°33'4 6.3
2015-May-21 14:31N 37°57' E 023°36'2 1.0
2015-May-21 12:28N 37°57' E 023°38'4 3.9
2015-May-21 11:33N 37°57' E 023°34'3 3.0
2015-May-21 10:33N 37°56' E 023°37'0 0.0
2015-May-21 09:33N 37°56' E 023°37'0 0.0
2015-May-21 08:34N 37°56' E 023°37'1 0.8
2015-May-21 07:34N 37°56' E 023°37'5 5.1
2015-May-21 06:33N 38°00' E 023°32'2 0.1
2015-May-20 13:33N 38°02' E 023°31'0 0.1
2015-May-20 12:34N 38°02' E 023°31'0 0.0
2015-May-20 11:34N 38°02' E 023°31'0 0.0
2015-May-20 10:32N 38°02' E 023°31'0 0.0
2015-May-20 09:33N 38°02' E 023°31'0 0.0
2015-May-20 08:33N 38°02' E 023°31'0 0.0
2015-May-20 07:33N 38°02' E 023°31'4 2.5
2015-May-20 06:05N 38°02' E 023°35'1 0.5
2015-May-20 04:34N 38°02' E 023°34'2 0.1
2015-May-18 15:33N 38°02' E 023°32'6 6.6
2015-May-18 14:34N 37°57' E 023°37'1 1.4
2015-May-18 13:33N 37°57' E 023°38'0 0.1
2015-May-18 12:33N 37°57' E 023°38'0 0.2
2015-May-18 11:33N 37°57' E 023°38'0 0.0
2015-May-18 10:34N 37°57' E 023°38'0 0.0
2015-May-18 09:34N 37°57' E 023°38'0 0.0
2015-May-18 08:33N 37°57' E 023°38'0 0.1
2015-May-18 07:34N 37°57' E 023°38'5 5.2
2015-May-18 06:34N 37°60' E 023°33'3 0.1
2015-May-16 18:33N 38°02' E 023°32'1 0.8
2015-May-16 17:33N 38°02' E 023°31'0 0.0
2015-May-16 16:33N 38°02' E 023°31'0 0.0
2015-May-16 15:33N 38°02' E 023°31'0 0.5
2015-May-16 14:33N 38°02' E 023°31'0 0.0
2015-May-16 13:32N 38°02' E 023°31'0 0.0
2015-May-16 12:33N 38°02' E 023°31'0 0.3
2015-May-16 11:34N 38°02' E 023°31'6 6.2
2015-May-16 10:33N 37°57' E 023°36'1 1.2
2015-May-16 09:34N 37°56' E 023°38'0 0.0
2015-May-16 08:34N 37°56' E 023°38'0 0.0
2015-May-16 07:34N 37°56' E 023°38'0 0.0
2015-May-16 06:33N 37°56' E 023°38'5 4.7
2015-May-16 05:33N 37°59' E 023°33'3 0.2
2015-May-15 10:23N 38°02' E 023°32'1 1.2
2015-May-15 09:33N 38°02' E 023°31'0 0.0
2015-May-15 08:33N 38°02' E 023°31'0 0.0
2015-May-15 07:33N 38°02' E 023°31'0 0.0
2015-May-15 06:33N 38°02' E 023°31'0 0.0
2015-May-15 05:12N 38°02' E 023°31'1 0.6
2015-May-15 03:33N 38°02' E 023°32'6 0.4
2015-May-14 10:33N 37°57' E 023°36'1 1.0
2015-May-14 09:33N 37°56' E 023°37'0 0.0
2015-May-14 08:28N 37°56' E 023°37'1 0.7
2015-May-14 07:34N 37°57' E 023°37'  
Track history (hours):
 
Tides and Currents Weather Stations Pressure Air Temp Water Temp Dewpoint Dewpoint Depression Visibility Wind Speed Wind Dir Waves Ship Positions

Aegean Orion

Last reported at 2015-May-23 12:27 UTC. Time now 2015-May-24 05:00 UTC.
Position N 38°02' E 023°32'.

; draft 2.4 m.

Type: Ship. MMSI: 239550200.

Date/timePositionNaut miles runAvg speedWind from/ knotsBaromVisibWave heightAir tempDewpointWater temp
2015-May-23 12:27N 38°02' E 023°32'1 1.2
2015-May-23 11:33N 38°02' E 023°31'0 0.0
2015-May-23 10:33N 38°02' E 023°31'0 0.0
2015-May-23 09:33N 38°02' E 023°31'5 5.2
2015-May-23 08:33N 37°57' E 023°33'4 3.7
2015-May-23 07:33N 37°56' E 023°38'0 0.0
2015-May-23 06:33N 37°56' E 023°38'1 0.7
2015-May-23 05:33N 37°56' E 023°37'5 5.3
2015-May-23 04:33N 38°00' E 023°33'2 0.1
2015-May-22 11:04N 38°02' E 023°32'4 6.9
2015-May-22 10:33N 37°58' E 023°33'4 4.2
2015-May-22 09:33N 37°56' E 023°38'0 0.0
2015-May-22 08:34N 37°56' E 023°38'0 0.0
2015-May-22 07:34N 37°56' E 023°38'2 1.5
2015-May-22 06:34N 37°57' E 023°36'6 5.7
2015-May-22 05:34N 38°02' E 023°32'0 0.2
2015-May-22 04:34N 38°02' E 023°32'0 0.0
2015-May-22 03:34N 38°02' E 023°32'0 0.0
2015-May-22 02:33N 38°02' E 023°32'0 0.0
2015-May-22 01:33N 38°02' E 023°32'0 0.0
2015-May-22 00:33N 38°02' E 023°32'1 1.0
2015-May-21 23:32N 38°02' E 023°31'0 0.0
2015-May-21 22:33N 38°02' E 023°31'0 0.0
2015-May-21 21:33N 38°02' E 023°31'0 0.0
2015-May-21 20:33N 38°02' E 023°31'0 0.0
2015-May-21 19:33N 38°02' E 023°31'0 0.0
2015-May-21 18:34N 38°02' E 023°31'1 0.5
2015-May-21 17:34N 38°02' E 023°31'0 0.0
2015-May-21 16:33N 38°02' E 023°31'2 1.5
2015-May-21 15:08N 38°00' E 023°33'4 6.3
2015-May-21 14:31N 37°57' E 023°36'2 1.0
2015-May-21 12:28N 37°57' E 023°38'4 3.9
2015-May-21 11:33N 37°57' E 023°34'3 3.0
2015-May-21 10:33N 37°56' E 023°37'0 0.0
2015-May-21 09:33N 37°56' E 023°37'0 0.0
2015-May-21 08:34N 37°56' E 023°37'1 0.8
2015-May-21 07:34N 37°56' E 023°37'5 5.1
2015-May-21 06:33N 38°00' E 023°32'2 0.1
2015-May-20 13:33N 38°02' E 023°31'0 0.1
2015-May-20 12:34N 38°02' E 023°31'0 0.0
2015-May-20 11:34N 38°02' E 023°31'0 0.0
2015-May-20 10:32N 38°02' E 023°31'0 0.0
2015-May-20 09:33N 38°02' E 023°31'0 0.0
2015-May-20 08:33N 38°02' E 023°31'0 0.0
2015-May-20 07:33N 38°02' E 023°31'4 2.5
2015-May-20 06:05N 38°02' E 023°35'1 0.5
2015-May-20 04:34N 38°02' E 023°34'2 0.1
2015-May-18 15:33N 38°02' E 023°32'6 6.6
2015-May-18 14:34N 37°57' E 023°37'1 1.4
2015-May-18 13:33N 37°57' E 023°38'0 0.1
2015-May-18 12:33N 37°57' E 023°38'0 0.2
2015-May-18 11:33N 37°57' E 023°38'0 0.0
2015-May-18 10:34N 37°57' E 023°38'0 0.0
2015-May-18 09:34N 37°57' E 023°38'0 0.0
2015-May-18 08:33N 37°57' E 023°38'0 0.1
2015-May-18 07:34N 37°57' E 023°38'5 5.2
2015-May-18 06:34N 37°60' E 023°33'3 0.1
2015-May-16 18:33N 38°02' E 023°32'1 0.8
2015-May-16 17:33N 38°02' E 023°31'0 0.0
2015-May-16 16:33N 38°02' E 023°31'0 0.0
2015-May-16 15:33N 38°02' E 023°31'0 0.5
2015-May-16 14:33N 38°02' E 023°31'0 0.0
2015-May-16 13:32N 38°02' E 023°31'0 0.0
2015-May-16 12:33N 38°02' E 023°31'0 0.3
2015-May-16 11:34N 38°02' E 023°31'6 6.2
2015-May-16 10:33N 37°57' E 023°36'1 1.2
2015-May-16 09:34N 37°56' E 023°38'0 0.0
2015-May-16 08:34N 37°56' E 023°38'0 0.0
2015-May-16 07:34N 37°56' E 023°38'0 0.0
2015-May-16 06:33N 37°56' E 023°38'5 4.7
2015-May-16 05:33N 37°59' E 023°33'3 0.2
2015-May-15 10:23N 38°02' E 023°32'1 1.2
2015-May-15 09:33N 38°02' E 023°31'0 0.0
2015-May-15 08:33N 38°02' E 023°31'0 0.0
2015-May-15 07:33N 38°02' E 023°31'0 0.0
2015-May-15 06:33N 38°02' E 023°31'0 0.0
2015-May-15 05:12N 38°02' E 023°31'1 0.6
2015-May-15 03:33N 38°02' E 023°32'6 0.4
2015-May-14 10:33N 37°57' E 023°36'1 1.0
2015-May-14 09:33N 37°56' E 023°37'0 0.0
2015-May-14 08:28N 37°56' E 023°37'1 0.7
2015-May-14 07:34N 37°57' E 023°37'  

Dump ship's entire track history